Time;durP1;ratioP1;P1;durP2;ratioP2;P2;SDS_P1;SDS_P2;PMS_P1;PMS_P2;Temp;Humidity;BMP_temperature;BMP_pressure;BME280_temperature;BME280_humidity;BME280_pressure;Samples;Min_cycle;Max_cycle;Signal;HPM_P1;HPM_P2
2023/05/23 00:00:40;;;;;;;122.70;30.97;;;;;;;18.98;93.65;97966.38;4171799;28;20636;-88
2023/05/23 00:02:43;;;;;;;172.83;28.50;;;;;;;18.96;93.71;97968.38;4168601;28;21217;-88
2023/05/23 00:04:48;;;;;;;128.33;28.13;;;;;;;18.93;92.68;97966.06;4167300;28;20637;-88
2023/05/23 00:06:52;;;;;;;171.23;31.33;;;;;;;18.92;93.57;97965.19;4156194;28;20692;-88
2023/05/23 00:08:56;;;;;;;174.87;33.43;;;;;;;18.91;93.65;97968.84;4171136;28;20729;-88
2023/05/23 00:10:59;;;;;;;171.53;32.50;;;;;;;18.87;94.06;97974.63;4186278;28;20629;-88
2023/05/23 00:13:02;;;;;;;137.80;29.67;;;;;;;18.84;93.36;97974.06;4168426;28;20630;-88
2023/05/23 00:15:08;;;;;;;154.23;32.33;;;;;;;18.76;92.52;97969.59;4171022;28;20683;-88
2023/05/23 00:17:11;;;;;;;140.47;28.13;;;;;;;18.68;93.15;97969.56;4156944;28;20660;-88
2023/05/23 00:19:15;;;;;;;163.00;29.30;;;;;;;18.64;92.71;97968.22;4177940;28;20645;-88
2023/05/23 00:21:20;;;;;;;167.70;29.27;;;;;;;18.63;93.52;97982.41;4173011;28;20629;-88
2023/05/23 00:23:24;;;;;;;157.57;34.27;;;;;;;18.64;93.75;97980.59;4164331;28;20760;-88
2023/05/23 00:25:33;;;;;;;175.20;38.93;;;;;;;18.60;93.24;97974.81;4169911;28;20831;-88
2023/05/23 00:27:36;;;;;;;168.20;28.50;;;;;;;18.53;93.84;97976.41;4168215;28;20647;-88
2023/05/23 00:29:39;;;;;;;174.77;32.53;;;;;;;18.48;93.49;97978.69;4160736;28;20647;-88
2023/05/23 00:31:45;;;;;;;173.73;37.93;;;;;;;18.47;93.89;97968.28;4176613;28;21212;-88
2023/05/23 00:33:49;;;;;;;177.77;32.77;;;;;;;18.46;94.60;97978.03;4170494;28;20630;-88
2023/05/23 00:35:52;;;;;;;138.60;34.40;;;;;;;18.49;94.03;97975.06;4174585;28;20693;-88
2023/05/23 00:37:57;;;;;;;149.83;32.30;;;;;;;18.49;94.44;97987.44;4176765;28;20635;-89
2023/05/23 00:40:00;;;;;;;186.43;30.50;;;;;;;18.49;94.94;97985.63;4160494;28;20688;-88
2023/05/23 00:42:05;;;;;;;121.40;29.80;;;;;;;18.48;94.57;97983.16;4165474;28;21197;-88
2023/05/23 00:44:09;;;;;;;124.17;32.07;;;;;;;18.41;93.44;97982.09;4186496;28;20629;-88
2023/05/23 00:46:13;;;;;;;223.13;29.37;;;;;;;18.36;93.44;97975.63;4186355;28;20642;-88
2023/05/23 00:48:16;;;;;;;208.67;39.90;;;;;;;18.32;94.19;97977.75;4202404;28;20638;-88
2023/05/23 00:50:19;;;;;;;169.53;32.20;;;;;;;18.29;94.58;97980.69;4158307;28;21237;-88
2023/05/23 00:52:22;;;;;;;152.30;37.63;;;;;;;18.27;94.92;97979.22;4168998;28;20661;-88
2023/05/23 00:54:30;;;;;;;155.53;35.37;;;;;;;18.24;94.04;97982.16;4161604;28;20689;-88
2023/05/23 00:56:33;;;;;;;218.10;28.90;;;;;;;18.20;93.88;97975.53;4170921;28;20775;-88
2023/05/23 00:58:36;;;;;;;138.80;37.80;;;;;;;18.20;94.69;97978.97;4166783;28;21001;-88
2023/05/23 01:00:39;;;;;;;182.97;39.17;;;;;;;18.21;94.97;97983.28;4168606;28;20651;-88
2023/05/23 01:02:44;;;;;;;182.47;31.00;;;;;;;18.25;95.71;97989.94;4150607;28;20622;-88
2023/05/23 01:04:53;;;;;;;144.93;34.40;;;;;;;18.25;95.91;97989.94;4161525;28;20675;-88
2023/05/23 01:06:56;;;;;;;168.80;33.70;;;;;;;18.25;95.72;97994.38;4174214;28;20652;-88
2023/05/23 01:09:01;;;;;;;179.47;30.83;;;;;;;18.27;95.92;98001.16;4167008;28;20655;-88
2023/05/23 01:11:12;;;;;;;140.80;33.40;;;;;;;18.27;95.93;97997.72;4171587;28;21211;-88
2023/05/23 01:13:22;;;;;;;227.83;35.17;;;;;;;18.26;95.79;98002.13;4176563;28;20625;-88
2023/05/23 01:15:29;;;;;;;196.77;30.60;;;;;;;18.23;95.74;98013.00;4158598;28;21167;-88
2023/05/23 01:17:36;;;;;;;193.30;35.37;;;;;;;18.23;95.85;98004.28;4157940;28;21220;-88
2023/05/23 01:19:52;;;;;;;203.87;36.37;;;;;;;18.27;95.58;98000.34;4185990;28;20635;-88
2023/05/23 01:21:55;;;;;;;198.23;32.80;;;;;;;18.28;96.74;98009.91;4174659;28;20631;-88
2023/05/23 01:24:23;;;;;;;173.63;35.97;;;;;;;18.26;96.16;98009.25;4167641;28;20661;-88
2023/05/23 01:26:47;;;;;;;276.57;34.40;;;;;;;18.25;96.56;98010.22;4171539;28;20640;-88
2023/05/23 01:28:55;;;;;;;350.70;36.10;;;;;;;18.26;96.17;98010.06;4176461;28;20632;-88
2023/05/23 01:31:01;;;;;;;273.67;33.77;;;;;;;18.29;96.92;98007.13;4168878;28;20753;-89
2023/05/23 01:33:05;;;;;;;341.27;35.20;;;;;;;18.30;97.00;98015.88;4155869;28;20637;-88
2023/05/23 01:35:08;;;;;;;230.13;33.80;;;;;;;18.32;96.65;98003.34;4168089;28;20687;-89
2023/05/23 01:37:13;;;;;;;290.77;33.77;;;;;;;18.32;97.01;98005.97;4157214;28;20732;-88
2023/05/23 01:39:16;;;;;;;306.13;31.07;;;;;;;18.27;96.76;98001.16;4187651;28;20639;-88
2023/05/23 01:41:20;;;;;;;353.70;35.37;;;;;;;18.23;95.86;98006.91;4155201;28;21466;-89
2023/05/23 01:43:24;;;;;;;351.10;34.57;;;;;;;18.22;95.92;98003.44;4178345;28;21146;-88
2023/05/23 01:45:29;;;;;;;317.10;27.53;;;;;;;18.24;96.61;97998.00;4200714;28;20741;-88
2023/05/23 01:47:33;;;;;;;307.70;28.17;;;;;;;18.27;96.91;98018.84;4171386;28;20747;-88
2023/05/23 01:49:37;;;;;;;352.50;37.20;;;;;;;18.22;96.94;98015.81;4171870;28;20651;-88
2023/05/23 01:51:41;;;;;;;350.83;26.47;;;;;;;18.24;97.26;98013.84;4202206;28;20643;-89
2023/05/23 01:53:44;;;;;;;354.10;27.33;;;;;;;18.24;97.78;98014.69;4172979;28;20669;-89
2023/05/23 01:55:48;;;;;;;327.90;29.33;;;;;;;18.24;97.63;98016.50;4174359;28;20656;-89
2023/05/23 01:57:52;;;;;;;353.33;31.37;;;;;;;18.24;97.21;98008.56;4175081;28;21286;-88
2023/05/23 01:59:55;;;;;;;353.40;34.43;;;;;;;18.25;97.48;98016.34;4156639;28;21281;-88
2023/05/23 02:02:00;;;;;;;321.53;34.10;;;;;;;18.30;97.82;98018.53;4153360;28;20641;-88
2023/05/23 02:04:03;;;;;;;354.43;34.20;;;;;;;18.31;97.75;98010.44;4157861;28;20621;-88
2023/05/23 02:06:07;;;;;;;352.07;35.83;;;;;;;18.32;98.35;98011.28;4176370;28;20755;-89
2023/05/23 02:08:10;;;;;;;355.63;37.07;;;;;;;18.36;98.58;98012.59;4158003;28;20766;-88
2023/05/23 02:10:13;;;;;;;355.00;41.70;;;;;;;18.39;98.55;98018.41;4185310;28;20685;-89
2023/05/23 02:12:16;;;;;;;352.83;40.27;;;;;;;18.42;98.75;98020.75;4166883;28;20633;-88
2023/05/23 02:14:19;;;;;;;354.77;44.20;;;;;;;18.46;99.23;98020.28;4160321;28;20638;-88
2023/05/23 02:16:24;;;;;;;354.30;39.63;;;;;;;18.48;98.69;98018.31;4175104;28;20790;-88
2023/05/23 02:18:29;;;;;;;355.33;42.97;;;;;;;18.51;98.22;98019.84;4174288;28;20632;-88
2023/05/23 02:20:32;;;;;;;353.47;41.50;;;;;;;18.53;99.04;98023.13;4168834;28;20625;-88
2023/05/23 02:22:35;;;;;;;355.00;44.33;;;;;;;18.54;99.32;98028.25;4147414;28;20619;-88
2023/05/23 02:24:39;;;;;;;356.63;35.47;;;;;;;18.58;99.41;98028.78;4158010;28;20684;-88
2023/05/23 02:26:42;;;;;;;356.33;42.77;;;;;;;18.59;98.33;98025.16;4174424;28;20719;-88
2023/05/23 02:28:45;;;;;;;358.00;41.37;;;;;;;18.61;99.33;98033.75;4174424;28;21079;-88
2023/05/23 02:30:50;;;;;;;360.67;41.50;;;;;;;18.62;99.50;98032.78;4161544;28;20738;-89
2023/05/23 02:32:53;;;;;;;362.03;39.70;;;;;;;18.64;99.16;98031.66;4171624;28;20642;-89
2023/05/23 02:34:58;;;;;;;361.33;43.17;;;;;;;18.65;100.00;98035.94;4157105;28;21385;-89
2023/05/23 02:37:01;;;;;;;360.17;46.07;;;;;;;18.68;100.00;98045.38;4161840;28;20677;-88
2023/05/23 02:39:05;;;;;;;359.53;44.97;;;;;;;18.69;99.73;98042.56;4169263;28;21201;-88
2023/05/23 02:41:08;;;;;;;358.77;46.10;;;;;;;18.70;99.80;98043.38;4171368;28;21240;-88
2023/05/23 02:43:12;;;;;;;360.13;43.50;;;;;;;18.71;99.95;98037.94;4168054;28;20630;-88
2023/05/23 02:45:15;;;;;;;356.07;44.80;;;;;;;18.74;99.52;98040.28;4161385;28;21190;-88
2023/05/23 02:47:18;;;;;;;374.90;45.40;;;;;;;18.75;100.00;98039.31;4158017;28;21442;-89
2023/05/23 02:49:21;;;;;;;358.77;42.53;;;;;;;18.77;99.91;98045.25;4186876;28;20683;-89
2023/05/23 02:51:27;;;;;;;357.90;38.20;;;;;;;18.77;100.00;98050.53;4208448;28;20618;-88
2023/05/23 02:53:30;;;;;;;358.43;37.40;;;;;;;18.78;100.00;98052.22;4162384;28;20640;-89
2023/05/23 02:55:33;;;;;;;356.80;39.50;;;;;;;18.78;100.00;98051.34;4175372;28;20637;-89
2023/05/23 02:57:36;;;;;;;332.13;29.33;;;;;;;18.77;100.00;98050.53;4172319;28;20630;-89
2023/05/23 02:59:40;;;;;;;354.70;38.37;;;;;;;18.75;99.90;98052.53;4152560;28;20684;-88
2023/05/23 03:01:43;;;;;;;244.10;34.80;;;;;;;18.76;98.46;98051.50;4160829;28;20684;-88
2023/05/23 03:03:46;;;;;;;358.80;39.07;;;;;;;18.77;98.18;98047.91;4175941;28;20730;-88
2023/05/23 03:05:50;;;;;;;318.47;33.93;;;;;;;18.79;98.76;98053.03;4176697;28;20673;-88
2023/05/23 03:07:54;;;;;;;354.70;36.97;;;;;;;18.78;98.89;98051.34;4172934;28;20704;-88
2023/05/23 03:09:58;;;;;;;321.97;39.27;;;;;;;18.77;99.79;98053.19;4172165;28;20712;-89
2023/05/23 03:12:01;;;;;;;315.03;38.83;;;;;;;18.79;99.67;98048.56;4174534;28;20626;-89
2023/05/23 03:14:05;;;;;;;358.40;37.37;;;;;;;18.79;100.00;98050.38;4158343;28;20719;-89
2023/05/23 03:16:08;;;;;;;351.97;37.23;;;;;;;18.77;100.00;98057.66;4174755;28;20760;-89
2023/05/23 03:18:11;;;;;;;357.17;40.30;;;;;;;18.77;100.00;98058.47;4170687;28;20694;-89
2023/05/23 03:20:14;;;;;;;367.43;45.03;;;;;;;18.76;100.00;98053.34;4170628;28;20667;-89
2023/05/23 03:22:17;;;;;;;357.47;34.43;;;;;;;18.76;100.00;98054.16;4162517;28;20668;-89
2023/05/23 03:24:22;;;;;;;356.33;32.63;;;;;;;18.78;100.00;98056.66;4169786;28;21038;-89
2023/05/23 03:26:25;;;;;;;357.70;38.20;;;;;;;18.79;99.71;98061.78;4175673;28;20639;-89
2023/05/23 03:28:28;;;;;;;360.87;35.17;;;;;;;18.81;100.00;98061.63;4161707;28;20647;-89
2023/05/23 03:30:31;;;;;;;293.73;34.93;;;;;;;18.83;100.00;98060.50;4169146;28;20653;-89
2023/05/23 03:32:34;;;;;;;326.10;30.90;;;;;;;18.83;100.00;98065.78;4160139;28;20669;-89
2023/05/23 03:34:37;;;;;;;360.20;35.70;;;;;;;18.83;100.00;98062.31;4158597;28;21011;-88
2023/05/23 03:36:40;;;;;;;359.03;34.30;;;;;;;18.84;99.88;98067.44;4154483;28;20666;-89
2023/05/23 03:38:44;;;;;;;357.97;38.50;;;;;;;18.86;99.76;98070.75;4153062;28;20757;-89
2023/05/23 03:40:48;;;;;;;360.73;31.77;;;;;;;18.89;100.00;98070.44;4166266;28;21266;-89
2023/05/23 03:43:01;;;;;;;355.37;33.37;;;;;;;18.90;100.00;98078.22;4154285;28;20640;-89
2023/05/23 03:45:06;;;;;;;314.33;35.67;;;;;;;18.92;100.00;98070.13;4156411;28;20737;-89
2023/05/23 03:47:09;;;;;;;365.47;40.93;;;;;;;18.92;100.00;98070.94;4172773;28;20672;-89
2023/05/23 03:49:15;;;;;;;368.13;38.23;;;;;;;18.92;100.00;98070.13;4154046;28;20746;-89
2023/05/23 03:51:18;;;;;;;317.90;37.67;;;;;;;18.92;100.00;98070.94;4168559;28;20651;-89
2023/05/23 03:53:21;;;;;;;358.73;35.07;;;;;;;18.93;100.00;98069.16;4173103;28;20642;-89
2023/05/23 03:55:24;;;;;;;333.53;39.37;;;;;;;18.94;100.00;98061.06;4155207;28;21032;-89
2023/05/23 03:57:29;;;;;;;264.27;36.87;;;;;;;18.96;100.00;98068.84;4158350;28;20682;-89
2023/05/23 03:59:32;;;;;;;327.10;38.37;;;;;;;18.96;99.80;98064.38;4175486;28;20638;-89
2023/05/23 04:01:40;;;;;;;285.87;40.17;;;;;;;18.98;100.00;98069.50;4176182;28;20650;-89
2023/05/23 04:03:43;;;;;;;334.27;42.03;;;;;;;19.00;100.00;98071.00;4173388;28;20630;-89
2023/05/23 04:05:47;;;;;;;286.20;41.80;;;;;;;19.02;99.91;98069.06;4178083;28;20698;-89
2023/05/23 04:07:51;;;;;;;327.97;47.17;;;;;;;19.05;100.00;98073.22;4174808;28;20686;-89
2023/05/23 04:09:54;;;;;;;324.60;50.47;;;;;;;19.05;100.00;98078.50;4155867;28;21455;-89
2023/05/23 04:11:58;;;;;;;337.27;44.53;;;;;;;19.06;100.00;98082.78;4157529;28;20632;-89
2023/05/23 04:14:03;;;;;;;336.70;41.87;;;;;;;19.07;100.00;98085.28;4177746;28;20636;-89
2023/05/23 04:16:07;;;;;;;344.63;45.37;;;;;;;19.08;100.00;98081.66;4154866;28;20636;-89
2023/05/23 04:18:10;;;;;;;348.23;49.30;;;;;;;19.09;100.00;98087.78;4202123;28;20649;-89
2023/05/23 04:20:13;;;;;;;310.43;45.07;;;;;;;19.10;100.00;98089.44;4172064;28;20637;-88
2023/05/23 04:22:17;;;;;;;282.53;47.27;;;;;;;19.09;100.00;98085.97;4167684;28;21267;-89
2023/05/23 04:24:22;;;;;;;256.77;47.83;;;;;;;19.10;100.00;98092.91;4166846;28;20737;-88
2023/05/23 04:26:25;;;;;;;246.00;48.43;;;;;;;19.12;100.00;98087.47;4183548;28;20711;-89
2023/05/23 04:28:29;;;;;;;360.50;43.23;;;;;;;19.12;100.00;98095.38;4168104;28;20667;-89
2023/05/23 04:30:33;;;;;;;338.63;51.10;;;;;;;19.15;100.00;98095.06;4167320;28;21236;-89
2023/05/23 04:32:37;;;;;;;330.20;45.13;;;;;;;19.15;100.00;98087.97;4197336;28;20719;-88
2023/05/23 04:34:40;;;;;;;333.37;51.13;;;;;;;19.16;100.00;98088.81;4169946;28;20636;-89
2023/05/23 04:36:44;;;;;;;295.37;46.60;;;;;;;19.17;100.00;98093.09;4172004;28;20656;-89
2023/05/23 04:38:48;;;;;;;365.80;48.87;;;;;;;19.18;99.72;98092.94;4170801;28;20722;-89
2023/05/23 04:40:52;;;;;;;299.23;51.43;;;;;;;19.20;100.00;98092.78;4158770;28;20682;-89
2023/05/23 04:43:20;;;;;;;327.87;55.13;;;;;;;19.22;100.00;98104.06;4156125;28;20631;-89
2023/05/23 04:45:27;;;;;;;390.43;57.80;;;;;;;19.22;100.00;98098.75;4171814;28;20676;-89
2023/05/23 04:47:55;;;;;;;372.40;51.93;;;;;;;19.26;99.44;98097.44;4170609;28;21061;-89
2023/05/23 04:50:17;;;;;;;363.00;52.80;;;;;;;19.29;100.00;98100.63;4186228;28;20617;-88
2023/05/23 04:52:20;;;;;;;285.07;51.57;;;;;;;19.31;100.00;98098.63;4165561;28;20676;-89
2023/05/23 04:54:23;;;;;;;345.60;55.43;;;;;;;19.32;99.75;98105.59;4152532;28;21741;-89
2023/05/23 04:56:28;;;;;;;332.67;59.70;;;;;;;19.35;99.43;98104.44;4170947;28;20641;-89
2023/05/23 04:58:32;;;;;;;364.80;55.70;;;;;;;19.37;100.00;98103.28;4160309;28;20737;-89
2023/05/23 05:00:39;;;;;;;327.67;55.03;;;;;;;19.41;100.00;98109.94;4169541;28;20641;-89
2023/05/23 05:02:43;;;;;;;312.77;51.87;;;;;;;19.44;99.29;98112.28;4166130;28;20622;-89
2023/05/23 05:04:48;;;;;;;352.60;48.73;;;;;;;19.49;100.00;98113.44;4171029;28;21196;-89
2023/05/23 05:06:51;;;;;;;321.60;50.97;;;;;;;19.50;99.62;98114.25;4169716;28;20673;-89
2023/05/23 05:08:54;;;;;;;380.63;48.23;;;;;;;19.50;99.35;98108.97;4157884;28;21239;-89
2023/05/23 05:10:58;;;;;;;336.03;53.17;;;;;;;19.53;100.00;98114.78;4157135;28;20639;-89
2023/05/23 05:13:01;;;;;;;293.87;58.93;;;;;;;19.57;100.00;98110.81;4156620;28;21073;-89
2023/05/23 05:15:17;;;;;;;325.83;51.93;;;;;;;19.57;99.97;98115.28;4174231;28;20641;-89
2023/05/23 05:17:23;;;;;;;387.50;54.97;;;;;;;19.58;99.80;98117.78;4152599;28;20639;-89
2023/05/23 05:19:39;;;;;;;335.33;58.13;;;;;;;19.61;98.91;98117.47;4186513;28;20648;-90
2023/05/23 05:21:43;;;;;;;321.80;57.00;;;;;;;19.63;99.62;98120.75;4200902;28;20637;-89
2023/05/23 05:23:46;;;;;;;390.17;57.13;;;;;;;19.65;99.93;98124.09;4158215;28;21075;-89
2023/05/23 05:25:52;;;;;;;277.30;49.57;;;;;;;19.65;98.24;98120.59;4150420;28;21092;-89
2023/05/23 05:27:55;;;;;;;329.03;50.00;;;;;;;19.64;99.91;98118.97;4165793;28;20641;-89
2023/05/23 05:30:03;;;;;;;389.37;54.93;;;;;;;19.64;99.60;98114.50;4161580;28;21370;-89
2023/05/23 05:32:09;;;;;;;387.70;52.60;;;;;;;19.64;98.18;98121.63;4163422;28;21234;-90
2023/05/23 05:34:12;;;;;;;329.97;57.73;;;;;;;19.65;99.15;98120.59;4170269;28;21150;-89
2023/05/23 05:36:15;;;;;;;337.53;53.23;;;;;;;19.67;98.74;98124.75;4171843;28;21173;-89
2023/05/23 05:38:21;;;;;;;307.03;51.27;;;;;;;19.73;98.64;98125.94;4184487;28;21270;-89
2023/05/23 05:40:24;;;;;;;252.63;50.50;;;;;;;19.79;98.67;98120.84;4183295;28;20634;-89
2023/05/23 05:42:28;;;;;;;358.43;53.67;;;;;;;19.89;98.04;98129.47;4150127;28;20636;-89
2023/05/23 05:44:31;;;;;;;382.83;55.17;;;;;;;19.98;97.52;98133.81;4156248;28;20635;-89
2023/05/23 05:46:34;;;;;;;307.60;50.93;;;;;;;20.06;96.40;98123.25;4169174;28;21026;-90
2023/05/23 05:48:38;;;;;;;386.40;52.23;;;;;;;20.09;98.13;98133.53;4165727;28;20628;-89
2023/05/23 05:50:44;;;;;;;326.60;52.80;;;;;;;20.08;96.60;98131.88;4168781;28;20738;-89
2023/05/23 05:52:48;;;;;;;379.13;56.50;;;;;;;20.05;95.92;98126.91;4172747;28;20642;-90
2023/05/23 05:54:52;;;;;;;345.17;48.63;;;;;;;20.04;96.95;98126.06;4153521;28;20964;-89
2023/05/23 05:56:55;;;;;;;325.23;53.73;;;;;;;20.06;96.68;98139.16;4167159;28;20646;-90
2023/05/23 05:58:59;;;;;;;384.40;55.60;;;;;;;20.07;97.25;98132.84;4169276;28;21050;-90
2023/05/23 06:01:04;;;;;;;389.77;54.30;;;;;;;20.08;97.60;98134.50;4155780;28;20635;-90
2023/05/23 06:03:07;;;;;;;295.27;58.50;;;;;;;20.08;97.30;98134.50;4172883;28;20640;-89
2023/05/23 06:05:17;;;;;;;370.67;52.67;;;;;;;20.07;97.26;98132.84;4161180;28;20644;-90
2023/05/23 06:07:21;;;;;;;379.77;50.87;;;;;;;20.06;97.31;98133.84;4180468;28;20640;-90
2023/05/23 06:09:24;;;;;;;295.73;57.43;;;;;;;20.07;95.94;98135.50;4172784;28;20627;-91
2023/05/23 06:11:29;;;;;;;322.23;52.27;;;;;;;20.05;96.88;98142.78;4169156;28;20631;-90
2023/05/23 06:13:32;;;;;;;371.10;46.83;;;;;;;20.04;96.95;98139.31;4171527;28;20613;-89
2023/05/23 06:15:36;;;;;;;383.10;51.20;;;;;;;20.04;95.48;98143.75;4178439;28;20629;-89
2023/05/23 06:17:39;;;;;;;389.83;52.60;;;;;;;20.03;95.48;98131.53;4159627;28;20717;-89
2023/05/23 06:19:43;;;;;;;386.27;50.63;;;;;;;20.06;96.73;98137.31;4170287;28;21335;-88
2023/05/23 06:21:46;;;;;;;375.13;51.63;;;;;;;20.13;97.31;98138.34;4154571;28;20737;-89
2023/05/23 06:23:51;;;;;;;382.47;57.00;;;;;;;20.21;95.31;98132.25;4165588;28;21183;-89
2023/05/23 06:25:54;;;;;;;337.63;50.23;;;;;;;20.28;95.47;98141.16;4172371;28;20680;-90
2023/05/23 06:27:59;;;;;;;318.47;49.83;;;;;;;20.36;96.03;98144.69;4179631;28;20665;-90
2023/05/23 06:30:03;;;;;;;379.33;49.30;;;;;;;20.47;95.30;98152.31;4191595;28;20646;-89
2023/05/23 06:32:06;;;;;;;384.87;51.90;;;;;;;20.52;95.33;98156.13;4179222;28;20657;-89
2023/05/23 06:34:10;;;;;;;371.83;50.67;;;;;;;20.58;94.23;98162.56;4162088;28;21342;-90
2023/05/23 06:36:14;;;;;;;361.63;48.03;;;;;;;20.58;94.80;98155.47;4165477;28;20650;-89
2023/05/23 06:38:17;;;;;;;322.30;52.20;;;;;;;20.57;94.43;98161.75;4151691;28;20655;-89
2023/05/23 06:40:20;;;;;;;365.43;48.27;;;;;;;20.51;93.41;98173.00;4172618;28;21234;-89
2023/05/23 06:42:25;;;;;;;326.73;53.77;;;;;;;20.50;93.76;98163.41;4151999;28;20729;-91
2023/05/23 06:44:40;;;;;;;379.07;48.70;;;;;;;20.46;93.42;98170.03;4160593;28;20643;-88
2023/05/23 06:46:46;;;;;;;330.63;50.30;;;;;;;20.49;93.36;98169.72;4169216;28;20726;-87
2023/05/23 06:48:49;;;;;;;376.63;52.07;;;;;;;20.50;92.65;98166.03;4175023;28;21043;-87
2023/05/23 06:51:10;;;;;;;378.17;53.97;;;;;;;20.51;93.43;98162.41;4197661;28;21211;-87
2023/05/23 06:53:15;;;;;;;354.93;49.50;;;;;;;20.52;92.53;98165.88;4179352;28;21222;-87
2023/05/23 06:55:22;;;;;;;380.67;54.60;;;;;;;20.49;92.87;98172.34;4160925;28;20743;-88
2023/05/23 06:57:25;;;;;;;371.60;46.17;;;;;;;20.47;94.13;98170.84;4179429;28;20690;-88
2023/05/23 06:59:28;;;;;;;331.73;53.93;;;;;;;20.48;93.78;98176.00;4178768;28;20682;-87
2023/05/23 07:01:33;;;;;;;374.07;50.50;;;;;;;20.46;92.58;98175.34;4177160;28;20680;-88
2023/05/23 07:03:37;;;;;;;371.43;53.13;;;;;;;20.50;93.56;98170.53;4167077;28;20633;-87
2023/05/23 07:05:42;;;;;;;375.03;53.07;;;;;;;20.55;93.70;98173.50;4156948;28;20692;-87
2023/05/23 07:07:46;;;;;;;379.07;52.33;;;;;;;20.54;91.37;98167.38;4156774;28;21120;-87
2023/05/23 07:09:49;;;;;;;376.00;52.57;;;;;;;20.53;92.04;98178.16;4176760;28;20652;-87
2023/05/23 07:11:54;;;;;;;374.20;49.00;;;;;;;20.53;93.70;98180.81;4176011;28;21063;-87
2023/05/23 07:13:59;;;;;;;372.17;52.20;;;;;;;20.53;92.83;98180.81;4164650;28;20639;-87
2023/05/23 07:16:11;;;;;;;375.20;51.07;;;;;;;20.53;92.25;98180.81;4152909;28;20998;-87
2023/05/23 07:18:26;;;;;;;346.77;46.13;;;;;;;20.50;92.60;98181.94;4158354;28;20659;-85
2023/05/23 07:20:33;;;;;;;298.37;47.23;;;;;;;20.52;93.19;98190.59;4152623;28;20689;-86
2023/05/23 07:22:45;;;;;;;363.53;44.17;;;;;;;20.52;92.25;98190.59;4157563;28;20668;-84
2023/05/23 07:24:48;;;;;;;351.33;47.63;;;;;;;20.47;93.26;98192.06;4150693;28;20619;-85
2023/05/23 07:26:52;;;;;;;371.83;48.80;;;;;;;20.43;92.52;98185.41;4165414;28;20709;-85
2023/05/23 07:28:55;;;;;;;358.00;45.80;;;;;;;20.43;92.93;98188.91;4161273;28;21545;-84
2023/05/23 07:30:58;;;;;;;370.73;52.33;;;;;;;20.42;92.11;98189.06;4166910;28;20669;-84
2023/05/23 07:33:02;;;;;;;373.17;47.17;;;;;;;20.43;92.97;98186.25;4182186;28;20687;-85
2023/05/23 07:35:07;;;;;;;368.60;47.20;;;;;;;20.50;91.21;98189.91;4153568;28;20708;-85
2023/05/23 07:37:10;;;;;;;368.93;52.80;;;;;;;20.60;91.99;98187.94;4165527;28;21269;-85
2023/05/23 07:39:20;;;;;;;369.50;43.97;;;;;;;20.71;91.72;98190.28;4169505;28;20650;-85
2023/05/23 07:41:25;;;;;;;371.60;45.20;;;;;;;20.82;90.49;98192.63;4171421;28;20632;-85
2023/05/23 07:43:28;;;;;;;366.27;46.43;;;;;;;20.91;90.31;98191.63;4172066;28;20645;-85
2023/05/23 07:45:32;;;;;;;367.30;49.47;;;;;;;21.01;89.64;98187.00;4160291;28;20688;-84
2023/05/23 07:47:35;;;;;;;335.57;45.67;;;;;;;21.14;89.24;98192.59;4173804;28;20677;-85
2023/05/23 07:49:39;;;;;;;366.33;45.13;;;;;;;21.27;89.50;98199.91;4173315;28;21197;-88
2023/05/23 07:51:43;;;;;;;365.50;48.73;;;;;;;21.31;87.32;98195.09;4176730;28;20641;-87
2023/05/23 07:53:47;;;;;;;350.67;43.03;;;;;;;21.36;87.39;98200.69;4177565;28;20717;-87
2023/05/23 07:55:50;;;;;;;365.03;44.83;;;;;;;21.41;87.28;98203.69;4184676;28;20708;-87
2023/05/23 07:57:55;;;;;;;367.63;46.77;;;;;;;21.71;87.30;98198.50;4162615;28;20922;-87
2023/05/23 07:59:59;;;;;;;366.17;40.10;;;;;;;22.07;86.27;98205.00;4194769;28;20711;-87
2023/05/23 08:02:05;;;;;;;363.23;42.67;;;;;;;22.55;87.39;98219.75;4161437;28;20732;-87
2023/05/23 08:04:08;;;;;;;363.63;45.43;;;;;;;22.78;85.40;98210.75;4171507;28;20620;-88
2023/05/23 08:06:19;;;;;;;313.40;38.57;;;;;;;22.87;83.56;98201.72;4167330;28;20669;-87
2023/05/23 08:08:24;;;;;;;312.13;26.77;;;;;;;22.67;80.45;98205.00;4159008;28;20632;-87
2023/05/23 08:10:28;;;;;;;362.10;40.47;;;;;;;22.48;82.19;98199.34;4157251;28;20627;-87
2023/05/23 08:12:39;;;;;;;352.07;38.90;;;;;;;22.44;82.72;98209.47;4156014;28;20692;-87
2023/05/23 08:14:47;;;;;;;361.03;43.27;;;;;;;22.53;82.96;98207.63;4152642;28;20630;-88
2023/05/23 08:17:17;;;;;;;359.97;42.10;;;;;;;22.81;81.92;98218.38;4192690;28;20744;-87
2023/05/23 08:19:21;;;;;;;359.67;37.37;;;;;;;22.96;80.30;98216.66;4158009;28;20648;-88
2023/05/23 08:21:25;;;;;;;357.90;38.77;;;;;;;22.79;80.72;98222.22;4173341;28;20633;-87
2023/05/23 08:23:30;;;;;;;318.93;37.13;;;;;;;22.54;81.01;98214.59;4174561;28;21242;-87
2023/05/23 08:25:33;;;;;;;294.40;35.60;;;;;;;22.28;80.99;98212.25;4172834;28;20703;-88
2023/05/23 08:27:37;;;;;;;250.77;33.67;;;;;;;22.02;82.32;98212.66;4160042;28;20672;-87
2023/05/23 08:29:51;;;;;;;337.70;44.60;;;;;;;21.83;83.15;98210.41;4162851;28;20693;-87
2023/05/23 08:31:55;;;;;;;294.77;36.67;;;;;;;21.65;81.83;98217.78;4169713;28;20641;-87
2023/05/23 08:33:59;;;;;;;262.83;40.77;;;;;;;21.45;81.98;98219.13;4167820;28;20643;-87
2023/05/23 08:36:04;;;;;;;209.83;39.83;;;;;;;21.29;83.10;98220.97;4150124;28;21251;-86
2023/05/23 08:38:08;;;;;;;337.77;40.20;;;;;;;21.20;82.83;98221.13;4156154;28;20645;-86
2023/05/23 08:40:18;;;;;;;331.90;37.77;;;;;;;21.05;82.61;98215.69;4156238;28;20674;-86
2023/05/23 08:42:29;;;;;;;351.60;39.23;;;;;;;20.93;82.68;98216.19;4122295;28;21023;-86
2023/05/23 08:44:32;;;;;;;266.20;35.00;;;;;;;20.85;83.45;98214.34;4177919;28;21523;-85
2023/05/23 08:46:41;;;;;;;347.43;42.73;;;;;;;20.83;84.88;98215.50;4140940;28;24162;-86
2023/05/23 08:48:50;;;;;;;354.87;35.67;;;;;;;20.85;84.65;98224.09;4161547;28;20639;-86
2023/05/23 08:50:54;;;;;;;256.57;35.27;;;;;;;20.84;84.62;98215.34;4123857;28;20639;-86
2023/05/23 08:53:00;;;;;;;193.33;35.80;;;;;;;20.89;85.02;98214.84;4157771;28;20633;-87
2023/05/23 08:55:04;;;;;;;317.33;40.20;;;;;;;20.92;84.71;98214.50;4154227;28;20712;-86
2023/05/23 08:57:10;;;;;;;354.30;36.63;;;;;;;20.98;84.59;98227.13;4158073;28;20624;-87
2023/05/23 08:59:17;;;;;;;353.87;39.83;;;;;;;21.02;82.65;98223.16;4168520;28;20635;-86
2023/05/23 09:01:22;;;;;;;352.00;38.83;;;;;;;21.04;82.38;98227.28;4166490;28;21241;-86
2023/05/23 09:03:28;;;;;;;262.47;38.10;;;;;;;21.09;83.36;98226.78;4155335;28;20635;-86
2023/05/23 09:05:42;;;;;;;265.27;36.07;;;;;;;21.07;80.82;98226.94;4179268;28;20667;-86
2023/05/23 09:07:46;;;;;;;352.83;36.70;;;;;;;21.10;81.91;98221.31;4154030;28;20644;-86
2023/05/23 09:09:50;;;;;;;275.43;34.17;;;;;;;21.21;82.28;98225.44;4157371;28;20667;-86
2023/05/23 09:11:55;;;;;;;350.77;35.83;;;;;;;21.33;83.10;98235.53;4167010;28;20992;-86
2023/05/23 09:14:00;;;;;;;346.50;41.47;;;;;;;21.58;82.50;98238.03;4169020;28;21566;-86
2023/05/23 09:16:04;;;;;;;218.77;37.93;;;;;;;21.81;81.44;98238.97;4143031;28;21121;-85
2023/05/23 09:18:14;;;;;;;254.87;33.73;;;;;;;21.96;80.75;98238.09;4162383;28;20647;-86
2023/05/23 09:20:18;;;;;;;302.47;33.13;;;;;;;22.03;79.06;98236.41;4156161;28;20649;-86
2023/05/23 09:22:28;;;;;;;288.40;35.60;;;;;;;21.97;78.12;98231.78;4157872;28;20638;-86
2023/05/23 09:24:40;;;;;;;325.50;35.33;;;;;;;22.02;78.80;98233.91;4151453;28;20618;-87
2023/05/23 09:26:46;;;;;;;350.00;40.17;;;;;;;22.03;78.61;98240.91;4199882;28;20669;-86